Time;durP1;ratioP1;P1;durP2;ratioP2;P2;SDS_P1;SDS_P2;PMS_P1;PMS_P2;Temp;Humidity;BMP_temperature;BMP_pressure;BME280_temperature;BME280_humidity;BME280_pressure;Samples;Min_cycle;Max_cycle;Signal;HPM_P1;HPM_P2
2022/12/21 00:04:43;;;;;;;28.33;11.52;;;;;;;;;;21164989;28;20043;-59
2022/12/21 00:14:45;;;;;;;16.55;9.90;;;;;;;;;;21162939;28;20050;-60
2022/12/21 00:24:48;;;;;;;19.70;12.00;;;;;;;;;;21163026;28;20044;-59
2022/12/21 00:34:51;;;;;;;15.15;9.85;;;;;;;;;;21162114;28;20132;-60
2022/12/21 00:44:54;;;;;;;14.88;9.15;;;;;;;;;;21161304;28;20047;-59
2022/12/21 00:54:56;;;;;;;16.17;10.63;;;;;;;;;;21161570;28;20047;-59
2022/12/21 01:05:00;;;;;;;14.95;9.57;;;;;;;;;;21179079;28;20513;-60
2022/12/21 01:15:03;;;;;;;19.63;9.77;;;;;;;;;;21177428;28;20050;-61
2022/12/21 01:25:06;;;;;;;20.20;11.25;;;;;;;;;;21157340;28;20044;-59
2022/12/21 01:35:09;;;;;;;18.65;9.82;;;;;;;;;;21175538;28;20449;-61
2022/12/21 01:45:14;;;;;;;20.38;10.40;;;;;;;;;;21173982;28;20051;-59
2022/12/21 01:55:17;;;;;;;24.42;11.05;;;;;;;;;;21173325;28;20043;-58
2022/12/21 02:05:31;;;;;;;23.55;11.63;;;;;;;;;;21171218;28;20048;-60
2022/12/21 02:15:51;;;;;;;22.48;11.35;;;;;;;;;;21172053;28;20040;-59
2022/12/21 02:25:54;;;;;;;18.40;8.80;;;;;;;;;;21171507;28;20092;-59
2022/12/21 02:36:01;;;;;;;22.30;11.02;;;;;;;;;;21170726;28;20062;-59
2022/12/21 02:46:04;;;;;;;20.55;9.57;;;;;;;;;;21168152;28;20055;-60
2022/12/21 02:56:19;;;;;;;22.52;11.38;;;;;;;;;;21168625;28;20051;-62
2022/12/21 03:06:29;;;;;;;21.40;10.30;;;;;;;;;;21167504;28;20438;-60
2022/12/21 03:16:31;;;;;;;27.53;12.77;;;;;;;;;;21168302;28;20147;-58
2022/12/21 03:26:40;;;;;;;26.80;12.23;;;;;;;;;;21165222;28;20051;-60
2022/12/21 03:36:55;;;;;;;18.20;10.40;;;;;;;;;;21165448;28;20079;-59
2022/12/21 03:47:00;;;;;;;19.17;9.45;;;;;;;;;;21164853;28;20055;-60
2022/12/21 03:57:04;;;;;;;18.40;8.98;;;;;;;;;;21163794;28;20089;-60
2022/12/21 04:07:07;;;;;;;15.85;8.77;;;;;;;;;;21164030;28;20058;-60
2022/12/21 04:17:11;;;;;;;14.93;8.00;;;;;;;;;;21163849;28;20075;-59
2022/12/21 04:38:09;;;;;;;11.73;6.88;;;;;;;;;;21178554;28;20450;-59
2022/12/21 04:48:30;;;;;;;15.02;7.93;;;;;;;;;;21179526;28;20074;-59
2022/12/21 04:58:52;;;;;;;14.13;6.57;;;;;;;;;;21178440;28;20047;-59
2022/12/21 05:09:14;;;;;;;12.13;6.72;;;;;;;;;;21178229;28;20048;-59
2022/12/21 05:19:33;;;;;;;13.85;7.15;;;;;;;;;;21177752;28;20123;-59
2022/12/21 05:29:37;;;;;;;17.05;7.30;;;;;;;;;;21175750;28;20130;-60
2022/12/21 05:39:40;;;;;;;14.35;7.45;;;;;;;;;;21175126;28;20079;-59
2022/12/21 05:49:42;;;;;;;13.98;7.53;;;;;;;;;;21173478;28;20090;-59
2022/12/21 05:59:45;;;;;;;16.27;7.38;;;;;;;;;;21173071;28;20090;-59
2022/12/21 06:09:47;;;;;;;12.00;7.03;;;;;;;;;;21171787;28;20056;-60
2022/12/21 06:19:51;;;;;;;13.27;7.35;;;;;;;;;;21171940;28;20127;-59
2022/12/21 06:29:54;;;;;;;8.75;5.53;;;;;;;;;;21170104;28;20047;-59
2022/12/21 06:39:56;;;;;;;8.90;4.57;;;;;;;;;;21169770;28;20043;-59
2022/12/21 06:49:59;;;;;;;10.50;4.18;;;;;;;;;;21168814;28;20411;-61
2022/12/21 07:00:03;;;;;;;6.50;3.70;;;;;;;;;;21167775;28;20047;-59
2022/12/21 07:10:06;;;;;;;8.48;5.35;;;;;;;;;;21167277;28;20047;-59
2022/12/21 07:20:09;;;;;;;6.97;3.35;;;;;;;;;;21165908;28;20047;-59
2022/12/21 07:30:12;;;;;;;5.28;3.38;;;;;;;;;;21165839;28;20059;-59
2022/12/21 07:40:15;;;;;;;7.72;4.13;;;;;;;;;;21164983;28;20073;-60
2022/12/21 07:50:19;;;;;;;9.77;4.50;;;;;;;;;;21164079;28;20104;-60
2022/12/21 08:00:22;;;;;;;6.07;3.80;;;;;;;;;;21162348;28;20495;-60
2022/12/21 08:10:24;;;;;;;10.35;4.70;;;;;;;;;;21162859;28;20406;-60
2022/12/21 08:20:26;;;;;;;8.63;4.55;;;;;;;;;;21161777;28;20043;-61
2022/12/21 08:30:29;;;;;;;5.97;3.00;;;;;;;;;;21162780;28;20083;-59
2022/12/21 08:40:31;;;;;;;4.78;3.00;;;;;;;;;;21161651;28;20043;-59
2022/12/21 08:50:33;;;;;;;8.65;3.50;;;;;;;;;;21160462;28;20051;-59
2022/12/21 09:00:36;;;;;;;4.30;2.33;;;;;;;;;;21161659;28;20055;-59
2022/12/21 09:10:41;;;;;;;4.95;2.22;;;;;;;;;;21160607;28;20131;-59
2022/12/21 09:20:44;;;;;;;4.32;1.98;;;;;;;;;;21167567;28;20051;-59
2022/12/21 09:30:47;;;;;;;2.30;1.35;;;;;;;;;;21175236;28;20062;-59
2022/12/21 09:40:49;;;;;;;6.50;1.90;;;;;;;;;;21174452;28;20051;-59
2022/12/21 09:50:56;;;;;;;3.33;1.77;;;;;;;;;;21172673;28;20080;-59
2022/12/21 10:01:27;;;;;;;2.33;1.08;;;;;;;;;;21174234;28;20052;-70
2022/12/21 10:11:47;;;;;;;3.10;0.95;;;;;;;;;;21152368;28;20048;-66
2022/12/21 10:21:57;;;;;;;3.88;1.33;;;;;;;;;;21171227;28;20047;-69
2022/12/21 10:32:00;;;;;;;3.13;1.08;;;;;;;;;;21169292;28;20451;-62
2022/12/21 10:42:08;;;;;;;2.95;1.20;;;;;;;;;;21168597;28;20051;-67
2022/12/21 10:52:38;;;;;;;4.28;1.08;;;;;;;;;;21169185;28;20051;-68
2022/12/21 11:02:42;;;;;;;2.88;1.08;;;;;;;;;;21163681;28;20063;-64
2022/12/21 11:12:50;;;;;;;3.83;0.93;;;;;;;;;;21166827;28;20047;-62
2022/12/21 11:22:54;;;;;;;3.88;1.30;;;;;;;;;;21166006;28;20043;-59
2022/12/21 11:32:57;;;;;;;4.18;1.17;;;;;;;;;;21165721;28;20097;-60
2022/12/21 11:42:59;;;;;;;4.45;1.00;;;;;;;;;;21163482;28;20093;-60
2022/12/21 11:53:17;;;;;;;1.90;0.70;;;;;;;;;;21164136;28;20048;-60
2022/12/21 12:03:18;;;;;;;2.20;0.70;;;;;;;;;;21164824;28;20472;-58
2022/12/21 12:13:39;;;;;;;2.45;0.77;;;;;;;;;;21162346;28;20048;-60
2022/12/21 12:23:45;;;;;;;1.85;0.80;;;;;;;;;;21143646;28;20078;-58
2022/12/21 12:34:06;;;;;;;4.10;1.13;;;;;;;;;;21161465;28;20102;-59
2022/12/21 12:44:16;;;;;;;1.52;0.60;;;;;;;;;;21161019;28;20109;-60
2022/12/21 12:54:19;;;;;;;1.95;0.65;;;;;;;;;;21168906;28;20116;-57
2022/12/21 13:04:34;;;;;;;4.35;1.02;;;;;;;;;;21176763;28;20048;-59
2022/12/21 13:14:47;;;;;;;2.78;0.65;;;;;;;;;;21176791;28;20404;-59
2022/12/21 13:24:55;;;;;;;3.90;1.00;;;;;;;;;;21176426;28;20134;-60
2022/12/21 13:35:05;;;;;;;4.37;0.77;;;;;;;;;;21175349;28;20043;-59
2022/12/21 13:45:13;;;;;;;2.43;0.67;;;;;;;;;;21173679;28;20040;-60
2022/12/21 13:55:24;;;;;;;3.78;1.23;;;;;;;;;;21173325;28;20052;-58
2022/12/21 14:05:29;;;;;;;4.55;1.10;;;;;;;;;;21153929;28;20043;-60
2022/12/21 14:15:50;;;;;;;2.70;1.20;;;;;;;;;;21172689;28;20503;-58
2022/12/21 14:25:52;;;;;;;4.68;1.10;;;;;;;;;;21170966;28;20050;-59
2022/12/21 14:36:13;;;;;;;3.30;1.08;;;;;;;;;;21170560;28;20129;-58
2022/12/21 14:46:26;;;;;;;3.88;1.17;;;;;;;;;;21150773;28;20074;-62
2022/12/21 14:56:27;;;;;;;6.78;1.00;;;;;;;;;;21169461;28;20048;-60
2022/12/21 15:06:34;;;;;;;7.97;2.83;;;;;;;;;;21169990;28;20518;-59
2022/12/21 15:16:45;;;;;;;3.92;0.93;;;;;;;;;;21165687;28;20071;-62
2022/12/21 15:27:05;;;;;;;5.72;1.35;;;;;;;;;;21166831;28;20168;-61
2022/12/21 15:37:14;;;;;;;7.28;1.77;;;;;;;;;;21166433;28;20047;-61
2022/12/21 15:47:16;;;;;;;6.45;2.22;;;;;;;;;;21165451;28;20055;-60
2022/12/21 15:57:20;;;;;;;5.60;1.48;;;;;;;;;;21164309;28;20047;-60
2022/12/21 16:07:22;;;;;;;7.50;1.27;;;;;;;;;;21164022;28;20044;-62
2022/12/21 16:17:25;;;;;;;9.80;1.27;;;;;;;;;;21145767;28;20043;-59
2022/12/21 16:27:27;;;;;;;10.35;1.90;;;;;;;;;;21166596;28;20055;-60
2022/12/21 16:37:30;;;;;;;5.20;1.98;;;;;;;;;;21180320;28;20043;-59
2022/12/21 16:47:32;;;;;;;6.45;1.63;;;;;;;;;;21179276;28;20060;-61
2022/12/21 16:57:36;;;;;;;5.63;1.13;;;;;;;;;;21179496;28;20040;-58
2022/12/21 17:07:39;;;;;;;5.63;1.27;;;;;;;;;;21178099;28;20055;-59
2022/12/21 17:17:44;;;;;;;11.30;2.55;;;;;;;;;;21177531;28;20055;-59
2022/12/21 17:27:50;;;;;;;9.05;1.90;;;;;;;;;;21175986;28;20051;-60
2022/12/21 17:37:54;;;;;;;12.20;2.42;;;;;;;;;;21173647;28;20054;-60
2022/12/21 17:47:56;;;;;;;11.10;2.13;;;;;;;;;;21174190;28;20050;-60
2022/12/21 17:57:58;;;;;;;12.52;2.10;;;;;;;;;;21174100;28;20097;-60
2022/12/21 18:08:00;;;;;;;8.77;2.22;;;;;;;;;;21173928;28;20062;-60
2022/12/21 18:18:02;;;;;;;11.52;2.08;;;;;;;;;;21172690;28;20048;-59
2022/12/21 18:28:09;;;;;;;9.55;2.58;;;;;;;;;;21153406;28;20051;-59
2022/12/21 18:38:17;;;;;;;10.80;2.38;;;;;;;;;;21170784;28;20055;-62
2022/12/21 18:48:20;;;;;;;13.40;3.27;;;;;;;;;;21169601;28;20056;-60
2022/12/21 18:58:22;;;;;;;7.85;2.50;;;;;;;;;;21168795;28;20127;-61
2022/12/21 19:08:25;;;;;;;10.52;2.22;;;;;;;;;;21149020;28;20096;-60
2022/12/21 19:18:28;;;;;;;11.75;2.65;;;;;;;;;;21168542;28;20563;-61
2022/12/21 19:28:30;;;;;;;11.20;2.60;;;;;;;;;;21165636;28;20048;-60
2022/12/21 19:38:32;;;;;;;6.38;2.25;;;;;;;;;;21165342;28;20039;-61
2022/12/21 19:48:35;;;;;;;12.05;2.78;;;;;;;;;;21166325;28;20055;-58
2022/12/21 19:58:38;;;;;;;7.80;2.10;;;;;;;;;;21165373;28;20380;-60
2022/12/21 20:08:40;;;;;;;11.82;2.63;;;;;;;;;;21164571;28;20388;-58
2022/12/21 20:18:46;;;;;;;16.33;5.18;;;;;;;;;;21148200;28;20518;-60
2022/12/21 20:28:49;;;;;;;28.70;13.70;;;;;;;;;;21164096;28;20051;-60
2022/12/21 20:38:51;;;;;;;12.00;2.95;;;;;;;;;;21162999;28;20125;-59
2022/12/21 20:48:53;;;;;;;8.95;2.97;;;;;;;;;;21161428;28;20047;-60
2022/12/21 20:58:56;;;;;;;13.45;3.13;;;;;;;;;;21161656;28;20051;-61
2022/12/21 21:08:58;;;;;;;8.85;2.90;;;;;;;;;;21165906;28;20058;-62
2022/12/21 21:19:00;;;;;;;10.82;2.80;;;;;;;;;;21173898;28;20040;-60
2022/12/21 21:29:08;;;;;;;12.57;3.13;;;;;;;;;;21176408;28;20376;-61
2022/12/21 21:49:45;;;;;;;9.05;2.55;;;;;;;;;;21174650;28;20079;-64
2022/12/21 21:59:47;;;;;;;9.45;2.33;;;;;;;;;;21173662;28;20058;-61
2022/12/21 22:10:27;;;;;;;13.50;2.72;;;;;;;;;;21172473;28;20052;-59
2022/12/21 22:51:25;;;;;;;12.27;2.45;;;;;;;;;;21169986;28;20482;-60
2022/12/21 23:01:29;;;;;;;9.57;2.97;;;;;;;;;;21168386;28;20051;-60
2022/12/21 23:11:34;;;;;;;8.20;2.38;;;;;;;;;;21168538;28;20100;-59
